createdAt,value
2022-10-11T00:01:46.821Z,6.20
2022-10-11T00:04:14.066Z,6.30
2022-10-11T00:06:43.520Z,6.40
2022-10-11T00:09:15.951Z,5.72
2022-10-11T00:11:43.668Z,6.55
2022-10-11T00:14:10.887Z,6.85
2022-10-11T00:16:40.885Z,6.60
2022-10-11T00:19:08.127Z,6.85
2022-10-11T00:21:36.634Z,6.28
2022-10-11T00:24:04.401Z,6.20
2022-10-11T00:26:31.609Z,6.93
2022-10-11T00:28:58.834Z,6.82
2022-10-11T00:31:26.112Z,6.78
2022-10-11T00:33:54.495Z,6.93
2022-10-11T00:36:22.692Z,6.90
2022-10-11T00:38:50.092Z,7.22
2022-10-11T00:41:17.780Z,6.10
2022-10-11T00:43:45.392Z,7.05
2022-10-11T00:46:12.574Z,6.55
2022-10-11T00:48:48.589Z,6.13
2022-10-11T00:51:15.870Z,7.38
2022-10-11T00:53:43.226Z,6.70
2022-10-11T00:56:31.167Z,6.47
2022-10-11T00:58:58.933Z,6.80
2022-10-11T01:01:26.409Z,6.43
2022-10-11T01:03:53.752Z,7.32
2022-10-11T01:06:21.316Z,6.20
2022-10-11T01:08:49.103Z,7.00
2022-10-11T01:11:17.971Z,6.35
2022-10-11T01:13:52.932Z,4.82
2022-10-11T01:16:23.233Z,5.00
2022-10-11T01:18:58.476Z,5.63
2022-10-11T01:21:28.568Z,5.05
2022-10-11T01:24:11.027Z,5.63
2022-10-11T01:26:54.690Z,5.68
2022-10-11T01:29:21.893Z,5.18
2022-10-11T01:31:56.549Z,5.93
2022-10-11T01:34:34.052Z,5.50
2022-10-11T01:37:06.460Z,5.82
2022-10-11T01:39:39.012Z,5.78
2022-10-11T01:42:09.716Z,5.80
2022-10-11T01:44:37.479Z,5.82
2022-10-11T01:47:05.083Z,5.55
2022-10-11T01:49:32.368Z,5.55
2022-10-11T01:52:01.530Z,5.43
2022-10-11T01:55:08.783Z,6.03
2022-10-11T01:57:53.856Z,5.55
2022-10-11T02:00:22.319Z,5.15
2022-10-11T02:02:54.061Z,5.80
2022-10-11T02:05:43.996Z,6.20
2022-10-11T02:08:26.996Z,6.32
2022-10-11T02:11:06.458Z,6.00
2022-10-11T02:13:37.160Z,5.95
2022-10-11T02:16:07.201Z,6.22
2022-10-11T02:18:37.018Z,5.95
2022-10-11T02:21:05.650Z,5.70
2022-10-11T02:23:39.968Z,6.03
2022-10-11T02:26:07.769Z,5.72
2022-10-11T02:28:37.025Z,6.20
2022-10-11T02:31:06.629Z,6.65
2022-10-11T02:33:37.951Z,6.50
2022-10-11T02:36:08.657Z,6.43
2022-10-11T02:38:38.945Z,5.95
2022-10-11T02:41:26.413Z,6.70
2022-10-11T02:43:58.194Z,7.13
2022-10-11T02:46:26.006Z,6.55
2022-10-11T02:48:53.463Z,6.38
2022-10-11T02:51:20.658Z,6.05
2022-10-11T02:53:47.847Z,7.18
2022-10-11T02:56:15.071Z,6.70
2022-10-11T02:58:42.297Z,6.85
2022-10-11T03:01:09.563Z,7.53
2022-10-11T03:03:36.870Z,6.93
2022-10-11T03:06:04.702Z,6.10
2022-10-11T03:08:32.177Z,6.80
2022-10-11T03:10:59.828Z,7.20
2022-10-11T03:13:27.067Z,6.70
2022-10-11T03:16:02.825Z,6.88
2022-10-11T03:18:31.240Z,6.18
2022-10-11T03:20:58.631Z,6.20
2022-10-11T03:23:26.237Z,6.60
2022-10-11T03:25:53.399Z,5.57
2022-10-11T03:28:21.115Z,6.25
2022-10-11T03:30:51.355Z,5.78
2022-10-11T03:33:18.618Z,5.93
2022-10-11T03:35:46.524Z,5.93
2022-10-11T03:38:14.737Z,6.22
2022-10-11T03:40:42.394Z,6.05
2022-10-11T03:43:09.670Z,6.30
2022-10-11T03:45:37.255Z,6.63
2022-10-11T03:48:04.538Z,6.22
2022-10-11T03:50:31.754Z,6.65
2022-10-11T03:52:59.001Z,6.43
2022-10-11T03:55:26.194Z,5.88
2022-10-11T03:57:53.418Z,6.13
2022-10-11T04:00:20.770Z,6.35
2022-10-11T04:02:48.009Z,6.35
2022-10-11T04:05:15.329Z,6.30
2022-10-11T04:07:42.648Z,6.50
2022-10-11T04:10:09.954Z,6.90
2022-10-11T04:12:38.633Z,7.15
2022-10-11T04:15:06.616Z,8.00
2022-10-11T04:17:33.843Z,7.32
2022-10-11T04:20:01.034Z,7.20
2022-10-11T04:22:28.291Z,6.78
2022-10-11T04:24:55.507Z,6.18
2022-10-11T04:27:22.861Z,6.53
2022-10-11T04:29:50.059Z,6.82
2022-10-11T04:32:17.596Z,7.18
2022-10-11T04:34:44.815Z,7.38
2022-10-11T04:37:13.740Z,6.43
2022-10-11T04:39:41.115Z,6.20
2022-10-11T04:42:08.368Z,5.60
2022-10-11T04:44:35.610Z,6.63
2022-10-11T04:47:02.831Z,6.15
2022-10-11T04:49:30.047Z,5.88
2022-10-11T04:51:57.248Z,5.75
2022-10-11T04:54:24.510Z,6.72
2022-10-11T04:56:51.731Z,6.45
2022-10-11T04:59:19.179Z,6.47
2022-10-11T05:01:46.593Z,5.90
2022-10-11T05:04:13.977Z,6.65
2022-10-11T05:06:41.190Z,6.32
2022-10-11T05:09:08.512Z,6.35
2022-10-11T05:11:35.761Z,6.70
2022-10-11T05:14:02.943Z,6.07
2022-10-11T05:16:30.188Z,6.80
2022-10-11T05:18:57.721Z,6.55
2022-10-11T05:21:26.229Z,6.43
2022-10-11T05:23:55.132Z,6.40
2022-10-11T05:26:22.895Z,6.05
2022-10-11T05:28:50.774Z,5.88
2022-10-11T05:31:18.181Z,6.18
2022-10-11T05:33:45.916Z,5.38
2022-10-11T05:36:13.197Z,6.22
2022-10-11T05:38:40.945Z,6.25
2022-10-11T05:41:11.645Z,6.57
2022-10-11T05:43:39.025Z,6.78
2022-10-11T05:46:06.953Z,5.95
2022-10-11T05:48:34.837Z,6.55
2022-10-11T05:51:03.233Z,6.88
2022-10-11T05:53:30.542Z,6.47
2022-10-11T05:55:58.521Z,6.72
2022-10-11T05:58:25.856Z,6.45
2022-10-11T06:00:53.226Z,6.07
2022-10-11T06:03:21.096Z,6.47
2022-10-11T06:05:48.794Z,6.53
2022-10-11T06:08:17.935Z,6.65
2022-10-11T06:10:45.143Z,6.45
2022-10-11T06:13:12.346Z,7.00
2022-10-11T06:15:40.259Z,8.02
2022-10-11T06:18:07.717Z,8.07
2022-10-11T06:20:35.106Z,7.95
2022-10-11T06:23:02.394Z,8.20
2022-10-11T06:25:29.640Z,8.90
2022-10-11T06:27:56.984Z,6.43
2022-10-11T06:30:24.274Z,8.18
2022-10-11T06:32:59.010Z,9.27
2022-10-11T06:35:28.470Z,9.98
2022-10-11T06:37:55.669Z,9.50
2022-10-11T06:40:22.896Z,7.75
2022-10-11T06:42:50.336Z,7.90
2022-10-11T06:45:17.594Z,8.38
2022-10-11T06:47:44.777Z,7.65
2022-10-11T06:50:13.282Z,7.30
2022-10-11T06:52:40.489Z,6.88
2022-10-11T06:55:08.231Z,7.65
2022-10-11T06:57:35.423Z,8.95
2022-10-11T07:00:02.839Z,8.45
2022-10-11T07:02:30.010Z,7.97
2022-10-11T07:04:57.297Z,8.63
2022-10-11T07:07:24.616Z,9.85
2022-10-11T07:09:51.809Z,8.70
2022-10-11T07:12:19.079Z,7.45
2022-10-11T07:14:46.286Z,8.20
2022-10-11T07:17:13.475Z,7.95
2022-10-11T07:19:40.685Z,9.05
2022-10-11T07:22:08.047Z,9.32
2022-10-11T07:24:35.286Z,9.25
2022-10-11T07:27:03.254Z,9.45
2022-10-11T07:29:30.713Z,9.43
2022-10-11T07:31:58.208Z,8.52
2022-10-11T07:34:26.008Z,10.50
2022-10-11T07:36:53.386Z,10.15
2022-10-11T07:39:20.603Z,10.80
2022-10-11T07:41:48.017Z,11.23
2022-10-11T07:44:15.453Z,10.48
2022-10-11T07:46:42.786Z,10.70
2022-10-11T07:49:10.049Z,9.32
2022-10-11T07:51:37.340Z,9.45
2022-10-11T07:54:07.232Z,9.63
2022-10-11T07:56:37.118Z,10.63
2022-10-11T07:59:04.410Z,10.40
2022-10-11T08:01:31.997Z,11.93
2022-10-11T08:03:59.731Z,10.75
2022-10-11T08:06:31.150Z,10.95
2022-10-11T08:08:59.804Z,12.45
2022-10-11T08:11:28.666Z,11.48
2022-10-11T08:13:56.035Z,11.57
2022-10-11T08:16:23.241Z,11.60
2022-10-11T08:18:50.918Z,11.27
2022-10-11T08:21:19.113Z,10.98
2022-10-11T08:23:46.565Z,10.93
2022-10-11T08:26:14.339Z,11.65
2022-10-11T08:28:41.666Z,11.02
2022-10-11T08:31:12.270Z,10.20
2022-10-11T08:33:39.701Z,13.10
2022-10-11T08:36:07.977Z,11.77
2022-10-11T08:38:38.731Z,13.57
2022-10-11T08:41:21.077Z,13.55
2022-10-11T08:43:56.600Z,11.50
2022-10-11T08:46:26.379Z,12.57
2022-10-11T08:48:53.867Z,12.68
2022-10-11T08:52:00.128Z,13.43
2022-10-11T08:54:47.748Z,12.65
2022-10-11T08:57:20.111Z,11.43
2022-10-11T08:59:50.052Z,11.68
2022-10-11T09:02:24.865Z,11.70
2022-10-11T09:04:52.792Z,11.93
2022-10-11T09:07:20.003Z,13.10
2022-10-11T09:10:03.954Z,16.95
2022-10-11T09:12:49.685Z,11.95
2022-10-11T09:15:41.640Z,10.02
2022-10-11T09:18:12.436Z,12.20
2022-10-11T09:20:44.736Z,11.18
2022-10-11T09:23:18.138Z,14.52
2022-10-11T09:25:52.797Z,12.38
2022-10-11T09:28:24.624Z,16.67
2022-10-11T09:33:21.670Z,14.65
2022-10-11T09:35:50.579Z,16.25
2022-10-11T09:38:47.052Z,13.40
2022-10-11T09:41:22.677Z,13.52
2022-10-11T09:43:51.372Z,16.20
2022-10-11T09:46:27.569Z,15.52
2022-10-11T09:48:55.822Z,17.40
2022-10-11T09:51:25.042Z,17.63
2022-10-11T09:53:54.506Z,18.95
2022-10-11T09:56:22.540Z,21.08
2022-10-11T09:58:49.976Z,19.55
2022-10-11T10:01:24.140Z,22.23
2022-10-11T10:04:04.644Z,19.77
2022-10-11T10:06:31.868Z,20.25
2022-10-11T10:09:37.963Z,19.35
2022-10-11T10:12:12.380Z,16.88
2022-10-11T10:14:41.837Z,19.75
2022-10-11T10:17:18.167Z,20.10
2022-10-11T10:19:53.077Z,19.48
2022-10-11T10:22:25.402Z,19.73
2022-10-11T10:24:52.938Z,19.23
2022-10-11T10:27:26.859Z,17.73
2022-10-11T10:30:13.185Z,21.98
2022-10-11T10:32:50.090Z,17.95
2022-10-11T10:35:36.161Z,17.00
2022-10-11T10:38:03.389Z,16.95
2022-10-11T10:40:36.637Z,16.60
2022-10-11T10:43:04.206Z,17.33
2022-10-11T10:45:54.432Z,17.77
2022-10-11T10:49:12.053Z,16.65
2022-10-11T10:51:42.791Z,17.58
2022-10-11T10:54:16.144Z,17.40
2022-10-11T10:57:03.681Z,17.83
2022-10-11T10:59:33.941Z,16.45
2022-10-11T11:02:28.172Z,14.73
2022-10-11T11:05:05.387Z,17.58
2022-10-11T11:07:44.447Z,15.07
2022-10-11T11:10:16.387Z,15.73
2022-10-11T11:12:47.943Z,15.95
2022-10-11T11:15:32.020Z,13.63
2022-10-11T11:18:07.326Z,14.55
2022-10-11T11:20:43.835Z,15.05
2022-10-11T11:23:28.124Z,14.65
2022-10-11T11:26:19.258Z,14.55
2022-10-11T11:28:55.727Z,14.57
2022-10-11T11:31:29.260Z,14.23
2022-10-11T11:33:56.532Z,14.63
2022-10-11T11:36:36.653Z,14.48
2022-10-11T11:39:05.863Z,13.65
2022-10-11T11:41:42.772Z,14.23
2022-10-11T11:44:27.630Z,13.77
2022-10-11T11:46:58.067Z,14.57
2022-10-11T11:49:36.287Z,14.02
2022-10-11T11:52:07.620Z,13.80
2022-10-11T11:54:58.085Z,14.88
2022-10-11T11:57:32.808Z,13.55
2022-10-11T12:00:04.584Z,14.18
2022-10-11T12:02:48.203Z,13.70
2022-10-11T12:05:17.474Z,13.90
2022-10-11T12:07:52.643Z,14.23
2022-10-11T12:10:40.168Z,14.82
2022-10-11T12:13:10.579Z,14.50
2022-10-11T12:15:38.316Z,15.88
2022-10-11T12:18:13.710Z,16.08
2022-10-11T12:20:41.722Z,15.13
2022-10-11T12:23:27.712Z,16.60
2022-10-11T12:26:13.662Z,14.75
2022-10-11T12:28:43.760Z,13.38
2022-10-11T12:31:39.414Z,14.30
2022-10-11T12:34:09.668Z,14.55
2022-10-11T12:36:37.125Z,15.73
2022-10-11T12:39:19.606Z,14.38
2022-10-11T12:41:50.184Z,15.60
2022-10-11T12:44:25.110Z,15.63
2022-10-11T12:46:53.619Z,15.63
2022-10-11T12:49:32.888Z,15.10
2022-10-11T12:52:00.146Z,14.13
2022-10-11T12:54:39.731Z,15.00
2022-10-11T12:57:12.350Z,14.55
2022-10-11T12:59:43.130Z,15.68
2022-10-11T13:02:24.831Z,15.77
2022-10-11T13:04:52.145Z,14.35
2022-10-11T13:07:23.418Z,14.55
2022-10-11T13:09:53.906Z,15.23
2022-10-11T13:12:23.235Z,14.52
2022-10-11T13:15:09.705Z,15.90
2022-10-11T13:17:38.969Z,14.35
2022-10-11T13:20:09.646Z,13.70
2022-10-11T13:22:39.375Z,12.98
2022-10-11T13:25:07.302Z,13.27
2022-10-11T13:27:34.510Z,12.60
2022-10-11T13:30:02.703Z,12.65
2022-10-11T13:32:31.534Z,12.77
2022-10-11T13:35:03.295Z,12.30
2022-10-11T13:39:58.077Z,11.32
2022-10-11T13:42:29.706Z,12.05
2022-10-11T13:44:57.106Z,12.77
2022-10-11T13:47:26.895Z,11.35
2022-10-11T13:50:13.044Z,11.88
2022-10-11T13:53:09.825Z,12.65
2022-10-11T13:55:37.086Z,12.07
2022-10-11T13:58:11.973Z,12.02
2022-10-11T14:00:52.681Z,11.50
2022-10-11T14:03:21.235Z,12.18
2022-10-11T14:05:58.565Z,12.52
2022-10-11T14:08:30.352Z,11.80
2022-10-11T14:13:33.714Z,10.70
2022-10-11T14:16:00.896Z,10.75
2022-10-11T14:18:43.331Z,12.02
2022-10-11T14:21:20.459Z,10.88
2022-10-11T14:23:48.229Z,10.00
2022-10-11T14:26:18.655Z,9.68
2022-10-11T14:28:46.592Z,11.18
2022-10-11T14:31:13.859Z,10.15
2022-10-11T14:33:41.092Z,9.70
2022-10-11T14:36:08.843Z,9.82
2022-10-11T14:38:38.960Z,9.95
2022-10-11T14:41:06.221Z,11.25
2022-10-11T14:43:33.468Z,10.50
2022-10-11T14:46:00.744Z,10.45
2022-10-11T14:48:50.438Z,10.07
2022-10-11T14:51:16.542Z,9.63
2022-10-11T14:53:46.395Z,9.40
2022-10-11T14:56:18.943Z,8.55
2022-10-11T14:58:48.477Z,8.73
2022-10-11T15:01:16.510Z,8.45
2022-10-11T15:03:44.044Z,9.43
2022-10-11T15:06:16.832Z,8.75
2022-10-11T15:08:44.117Z,9.70
2022-10-11T15:11:12.266Z,8.73
2022-10-11T15:13:39.499Z,10.98
2022-10-11T15:16:07.592Z,12.23
2022-10-11T15:18:34.988Z,13.13
2022-10-11T15:21:02.295Z,18.40
2022-10-11T15:23:30.122Z,11.73
2022-10-11T15:25:57.361Z,12.80
2022-10-11T15:28:27.303Z,10.20
2022-10-11T15:30:55.478Z,10.02
2022-10-11T15:33:23.158Z,9.85
2022-10-11T15:35:50.511Z,9.88
2022-10-11T15:38:19.076Z,9.27
2022-10-11T15:40:46.688Z,8.88
2022-10-11T15:43:14.345Z,8.18
2022-10-11T15:45:41.898Z,8.43
2022-10-11T15:48:09.381Z,8.40
2022-10-11T15:50:37.409Z,8.00
2022-10-11T15:53:05.846Z,10.40
2022-10-11T15:55:33.944Z,10.50
2022-10-11T15:58:02.865Z,10.05
2022-10-11T16:00:30.822Z,10.35
2022-10-11T16:02:58.847Z,9.50
2022-10-11T16:05:27.675Z,19.10
2022-10-11T16:07:55.234Z,12.63
2022-10-11T16:10:22.747Z,10.45
2022-10-11T16:12:50.096Z,10.18
2022-10-11T16:15:17.418Z,9.68
2022-10-11T16:17:46.380Z,9.45
2022-10-11T16:20:14.118Z,9.82
2022-10-11T16:22:41.424Z,9.13
2022-10-11T16:25:08.723Z,8.88
2022-10-11T16:27:35.957Z,10.18
2022-10-11T16:30:03.339Z,9.73
2022-10-11T16:32:32.353Z,10.65
2022-10-11T16:34:59.605Z,9.75
2022-10-11T16:37:27.073Z,10.65
2022-10-11T16:39:54.286Z,9.82
2022-10-11T16:42:21.493Z,9.43
2022-10-11T16:44:48.727Z,10.48
2022-10-11T16:47:16.625Z,9.52
2022-10-11T16:49:43.981Z,10.50
2022-10-11T16:52:13.878Z,10.68
2022-10-11T16:54:44.866Z,10.02
2022-10-11T16:57:13.297Z,10.40
2022-10-11T16:59:40.543Z,9.80
2022-10-11T17:02:09.776Z,9.20
2022-10-11T17:04:36.971Z,10.30
2022-10-11T17:07:04.272Z,10.40
2022-10-11T17:09:31.504Z,11.57
2022-10-11T17:11:58.681Z,10.80
2022-10-11T17:14:25.953Z,10.90
2022-10-11T17:16:53.195Z,11.77
2022-10-11T17:19:20.382Z,11.52
2022-10-11T17:21:47.613Z,11.57
2022-10-11T17:24:14.852Z,10.40
2022-10-11T17:26:42.084Z,10.15
2022-10-11T17:29:13.565Z,10.05
2022-10-11T17:31:48.134Z,9.73
2022-10-11T17:34:17.355Z,9.80
2022-10-11T17:36:52.038Z,10.55
2022-10-11T17:39:20.762Z,12.68
2022-10-11T17:41:48.020Z,11.82
2022-10-11T17:44:17.948Z,11.38
2022-10-11T17:46:45.439Z,12.57
2022-10-11T17:49:13.078Z,11.23
2022-10-11T17:51:41.218Z,15.50
2022-10-11T17:54:12.526Z,13.40
2022-10-11T17:56:40.708Z,12.77
2022-10-11T17:59:08.617Z,12.35
2022-10-11T18:01:36.004Z,13.10
2022-10-11T18:04:04.635Z,14.27
2022-10-11T18:06:32.934Z,16.52
2022-10-11T18:09:01.845Z,18.02
2022-10-11T18:11:29.249Z,18.25
2022-10-11T18:13:56.538Z,18.30
2022-10-11T18:16:26.856Z,17.17
2022-10-11T18:18:54.689Z,17.02
2022-10-11T18:21:21.991Z,16.05
2022-10-11T18:23:49.269Z,13.02
2022-10-11T18:26:17.954Z,11.82
2022-10-11T18:28:45.531Z,11.50
2022-10-11T18:31:20.039Z,10.68
2022-10-11T18:33:47.633Z,11.95
2022-10-11T18:36:16.340Z,10.77
2022-10-11T18:38:46.457Z,10.32
2022-10-11T18:41:15.164Z,11.50
2022-10-11T18:43:42.389Z,13.85
2022-10-11T18:46:11.172Z,11.52
2022-10-11T18:48:42.060Z,10.40
2022-10-11T18:51:12.356Z,9.43
2022-10-11T18:53:39.904Z,9.23
2022-10-11T18:56:08.443Z,10.35
2022-10-11T18:58:36.428Z,12.45
2022-10-11T19:01:07.795Z,11.23
2022-10-11T19:03:35.653Z,11.35
2022-10-11T19:06:07.430Z,11.18
2022-10-11T19:08:34.967Z,11.00
2022-10-11T19:11:06.406Z,10.52
2022-10-11T19:13:34.056Z,10.50
2022-10-11T19:16:09.076Z,11.27
2022-10-11T19:18:40.443Z,11.02
2022-10-11T19:21:12.871Z,10.77
2022-10-11T19:23:41.051Z,10.32
2022-10-11T19:26:09.593Z,10.90
2022-10-11T19:28:37.009Z,9.85
2022-10-11T19:31:09.584Z,9.55
2022-10-11T19:33:37.131Z,9.40
2022-10-11T19:36:05.272Z,8.07
2022-10-11T19:38:33.525Z,9.20
2022-10-11T19:41:01.259Z,7.90
2022-10-11T19:43:28.461Z,8.73
2022-10-11T19:46:05.902Z,8.48
2022-10-11T19:48:33.573Z,8.73
2022-10-11T19:51:05.296Z,7.72
2022-10-11T19:53:32.833Z,8.30
2022-10-11T19:56:04.407Z,7.88
2022-10-11T19:58:31.765Z,8.05
2022-10-11T20:01:02.088Z,7.40
2022-10-11T20:03:29.415Z,6.75
2022-10-11T20:05:59.042Z,7.28
2022-10-11T20:08:26.280Z,7.25
2022-10-11T20:10:54.039Z,8.13
2022-10-11T20:13:21.649Z,7.95
2022-10-11T20:15:48.865Z,8.98
2022-10-11T20:18:16.096Z,8.45
2022-10-11T20:20:52.906Z,8.07
2022-10-11T20:23:23.738Z,8.27
2022-10-11T20:26:05.080Z,8.85
2022-10-11T20:28:33.410Z,7.28
2022-10-11T20:31:01.328Z,7.97
2022-10-11T20:33:32.345Z,8.18
2022-10-11T20:36:00.852Z,8.15
2022-10-11T20:38:29.332Z,6.80
2022-10-11T20:40:56.895Z,7.45
2022-10-11T20:43:24.187Z,6.97
2022-10-11T20:46:01.900Z,7.10
2022-10-11T20:48:29.884Z,7.28
2022-10-11T20:50:57.384Z,7.18
2022-10-11T20:53:25.035Z,5.30
2022-10-11T20:55:52.656Z,6.00
2022-10-11T20:58:20.254Z,6.47
2022-10-11T21:00:47.745Z,6.97
2022-10-11T21:03:15.110Z,6.55
2022-10-11T21:05:42.712Z,5.10
2022-10-11T21:08:10.190Z,5.63
2022-10-11T21:10:37.688Z,4.90
2022-10-11T21:13:04.922Z,4.93
2022-10-11T21:15:32.896Z,5.15
2022-10-11T21:18:00.168Z,5.20
2022-10-11T21:20:27.396Z,4.60
2022-10-11T21:22:54.615Z,4.82
2022-10-11T21:25:21.871Z,4.85
2022-10-11T21:27:49.202Z,5.22
2022-10-11T21:30:16.424Z,4.88
2022-10-11T21:32:43.702Z,4.75
2022-10-11T21:35:11.452Z,5.00
2022-10-11T21:37:38.718Z,5.03
2022-10-11T21:40:06.201Z,5.25
2022-10-11T21:42:33.420Z,5.30
2022-10-11T21:45:00.706Z,5.20
2022-10-11T21:47:28.004Z,4.90
2022-10-11T21:49:55.199Z,4.43
2022-10-11T21:52:22.715Z,4.85
2022-10-11T21:54:49.937Z,4.70
2022-10-11T21:57:17.152Z,4.82
2022-10-11T21:59:44.409Z,4.90
2022-10-11T22:02:11.723Z,5.18
2022-10-11T22:04:39.045Z,4.95
2022-10-11T22:07:06.315Z,5.25
2022-10-11T22:09:36.692Z,5.00
2022-10-11T22:12:04.664Z,4.97
2022-10-11T22:14:31.843Z,5.15
2022-10-11T22:16:59.123Z,5.22
2022-10-11T22:19:26.308Z,5.32
2022-10-11T22:21:53.614Z,6.53
2022-10-11T22:24:20.799Z,7.30
2022-10-11T22:26:48.031Z,6.97
2022-10-11T22:29:15.255Z,6.90
2022-10-11T22:31:42.588Z,7.47
2022-10-11T22:34:09.768Z,7.80
2022-10-11T22:36:37.512Z,6.85
2022-10-11T22:39:07.931Z,6.93
2022-10-11T22:41:35.862Z,6.70
2022-10-11T22:44:03.092Z,6.05
2022-10-11T22:46:30.704Z,5.28
2022-10-11T22:48:57.875Z,5.15
2022-10-11T22:51:25.096Z,5.18
2022-10-11T22:53:52.315Z,5.10
2022-10-11T22:56:19.556Z,4.57
2022-10-11T22:58:46.834Z,4.85
2022-10-11T23:01:15.875Z,4.68
2022-10-11T23:03:43.346Z,5.10
2022-10-11T23:06:10.690Z,5.03
2022-10-11T23:08:37.897Z,5.00
2022-10-11T23:11:06.225Z,4.88
2022-10-11T23:13:33.388Z,5.25
2022-10-11T23:16:00.671Z,5.60
2022-10-11T23:18:27.902Z,5.10
2022-10-11T23:20:55.225Z,5.10
2022-10-11T23:23:22.465Z,5.57
2022-10-11T23:25:49.708Z,5.88
2022-10-11T23:28:16.901Z,5.90
2022-10-11T23:30:44.159Z,5.55
2022-10-11T23:33:11.392Z,5.22
2022-10-11T23:35:38.591Z,5.18
2022-10-11T23:38:05.788Z,5.10
2022-10-11T23:40:32.963Z,5.10
2022-10-11T23:43:00.141Z,5.47
2022-10-11T23:45:27.824Z,5.50
2022-10-11T23:47:55.080Z,5.43
2022-10-11T23:50:22.302Z,6.00
2022-10-11T23:52:49.536Z,5.75
2022-10-11T23:55:16.784Z,6.22
2022-10-11T23:57:44.286Z,5.93
